createdAt,value
2018-07-21T00:00:49.929Z,49.10
2018-07-21T00:01:53.620Z,48.25
2018-07-21T00:02:56.827Z,48.73
2018-07-21T00:04:00.250Z,49.04
2018-07-21T00:05:06.458Z,49.48
2018-07-21T00:06:09.328Z,48.72
2018-07-21T00:07:12.291Z,49.26
2018-07-21T00:08:15.739Z,49.28
2018-07-21T00:09:23.020Z,49.49
2018-07-21T00:10:26.457Z,49.58
2018-07-21T00:11:35.020Z,50.31
2018-07-21T00:12:38.551Z,51.40
2018-07-21T00:13:41.454Z,51.68
2018-07-21T00:14:45.237Z,52.50
2018-07-21T00:15:48.929Z,52.71
2018-07-21T00:16:52.701Z,52.97
2018-07-21T00:17:55.925Z,52.49
2018-07-21T00:18:58.804Z,52.88
2018-07-21T00:20:01.792Z,53.00
2018-07-21T00:21:04.828Z,52.54
2018-07-21T00:22:08.921Z,52.87
2018-07-21T00:23:11.748Z,52.85
2018-07-21T00:24:15.371Z,52.56
2018-07-21T00:25:19.377Z,52.36
2018-07-21T00:26:26.162Z,51.99
2018-07-21T00:27:29.272Z,51.43
2018-07-21T00:28:32.262Z,50.96
2018-07-21T00:29:35.188Z,52.05
2018-07-21T00:30:39.367Z,51.40
2018-07-21T00:31:43.188Z,52.63
2018-07-21T00:32:47.200Z,51.89
2018-07-21T00:33:50.025Z,52.60
2018-07-21T00:34:52.923Z,52.32
2018-07-21T00:35:55.723Z,51.39
2018-07-21T00:36:58.918Z,51.35
2018-07-21T00:38:01.982Z,51.46
2018-07-21T00:39:05.607Z,52.42
2018-07-21T00:40:11.179Z,51.70
2018-07-21T00:41:14.149Z,51.86
2018-07-21T00:42:17.059Z,52.14
2018-07-21T00:43:21.469Z,53.38
2018-07-21T00:44:24.535Z,53.28
2018-07-21T00:45:29.699Z,54.28
2018-07-21T00:46:32.593Z,54.12
2018-07-21T00:47:36.527Z,53.63
2018-07-21T00:48:39.403Z,53.51
2018-07-21T00:49:42.757Z,54.35
2018-07-21T00:50:45.610Z,53.51
2018-07-21T00:51:48.481Z,53.19
2018-07-21T00:52:51.365Z,53.16
2018-07-21T00:53:54.344Z,52.54
2018-07-21T00:55:00.203Z,52.62
2018-07-21T00:56:04.338Z,52.78
2018-07-21T00:57:07.299Z,52.93
2018-07-21T00:58:12.627Z,52.68
2018-07-21T00:59:15.641Z,53.69
2018-07-21T01:00:18.502Z,53.28
2018-07-21T01:01:21.381Z,53.51
2018-07-21T01:02:24.718Z,53.11
2018-07-21T01:03:28.994Z,53.20
2018-07-21T01:04:32.122Z,53.95
2018-07-21T01:05:35.016Z,53.48
2018-07-21T01:06:37.884Z,54.07
2018-07-21T01:07:40.746Z,53.02
2018-07-21T01:08:45.565Z,52.82
2018-07-21T01:09:48.622Z,53.63
2018-07-21T01:10:51.527Z,52.69
2018-07-21T01:11:55.270Z,53.34
2018-07-21T01:12:58.095Z,53.92
2018-07-21T01:14:01.114Z,54.29
2018-07-21T01:15:04.432Z,54.00
2018-07-21T01:16:07.455Z,54.77
2018-07-21T01:17:10.306Z,54.72
2018-07-21T01:18:13.334Z,54.81
2018-07-21T01:19:16.326Z,54.70
2018-07-21T01:20:19.181Z,55.28
2018-07-21T01:21:22.326Z,55.00
2018-07-21T01:22:25.293Z,54.38
2018-07-21T01:23:28.146Z,54.60
2018-07-21T01:24:30.971Z,54.36
2018-07-21T01:25:34.243Z,54.92
2018-07-21T01:26:37.092Z,54.36
2018-07-21T01:27:40.281Z,54.15
2018-07-21T01:28:43.259Z,54.31
2018-07-21T01:29:46.220Z,54.36
2018-07-21T01:30:49.126Z,55.11
2018-07-21T01:31:52.210Z,54.12
2018-07-21T01:32:55.191Z,54.85
2018-07-21T01:33:58.379Z,54.27
2018-07-21T01:35:01.360Z,55.32
2018-07-21T01:36:04.344Z,55.19
2018-07-21T01:37:08.292Z,55.25
2018-07-21T01:38:11.724Z,55.49
2018-07-21T01:39:14.666Z,54.52
2018-07-21T01:40:18.450Z,54.74
2018-07-21T01:41:21.387Z,54.36
2018-07-21T01:42:25.614Z,53.56
2018-07-21T01:43:28.735Z,53.51
2018-07-21T01:44:33.316Z,53.99
2018-07-21T01:45:36.988Z,53.51
2018-07-21T01:46:47.666Z,53.48
2018-07-21T01:47:51.857Z,53.81
2018-07-21T01:48:56.242Z,54.67
2018-07-21T01:49:59.258Z,54.36
2018-07-21T01:51:02.341Z,55.36
2018-07-21T01:52:07.417Z,54.45
2018-07-21T01:53:11.069Z,54.41
2018-07-21T01:54:17.027Z,54.84
2018-07-21T01:55:20.827Z,55.57
2018-07-21T01:56:23.893Z,56.23
2018-07-21T01:57:29.027Z,56.44
2018-07-21T01:58:32.139Z,56.37
2018-07-21T01:59:35.453Z,57.88
2018-07-21T02:00:38.348Z,58.03
2018-07-21T02:01:41.243Z,59.04
2018-07-21T02:02:44.130Z,59.46
2018-07-21T02:03:48.597Z,59.52
2018-07-21T02:04:51.457Z,58.90
2018-07-21T02:05:54.713Z,59.91
2018-07-21T02:06:57.765Z,59.65
2018-07-21T02:08:00.641Z,60.28
2018-07-21T02:09:03.793Z,60.44
2018-07-21T02:10:06.910Z,60.98
2018-07-21T02:11:10.117Z,61.34
2018-07-21T02:12:15.294Z,61.51
2018-07-21T02:13:18.218Z,61.84
2018-07-21T02:14:21.847Z,61.51
2018-07-21T02:15:24.717Z,61.26
2018-07-21T02:16:27.636Z,61.27
2018-07-21T02:17:30.507Z,62.42
2018-07-21T02:18:33.712Z,61.60
2018-07-21T02:19:36.582Z,62.15
2018-07-21T02:20:41.462Z,61.89
2018-07-21T02:21:45.058Z,61.60
2018-07-21T02:22:48.047Z,60.64
2018-07-21T02:23:51.142Z,60.70
2018-07-21T02:24:58.556Z,60.93
2018-07-21T02:26:02.227Z,61.11
2018-07-21T02:27:05.153Z,61.13
2018-07-21T02:28:08.017Z,60.29
2018-07-21T02:29:10.847Z,60.99
2018-07-21T02:30:13.727Z,61.11
2018-07-21T02:31:16.873Z,60.84
2018-07-21T02:32:19.713Z,62.00
2018-07-21T02:33:23.178Z,62.14
2018-07-21T02:34:25.999Z,62.06
2018-07-21T02:35:28.970Z,65.29
2018-07-21T02:36:31.812Z,65.96
2018-07-21T02:37:35.043Z,64.85
2018-07-21T02:38:38.981Z,66.50
2018-07-21T02:39:41.832Z,66.52
2018-07-21T02:40:45.288Z,66.67
2018-07-21T02:41:48.163Z,65.94
2018-07-21T02:42:51.048Z,66.10
2018-07-21T02:43:53.873Z,65.54
2018-07-21T02:44:56.733Z,66.01
2018-07-21T02:45:59.629Z,64.40
2018-07-21T02:47:02.451Z,65.20
2018-07-21T02:48:06.130Z,66.92
2018-07-21T02:49:09.027Z,67.59
2018-07-21T02:50:12.270Z,68.21
2018-07-21T02:51:15.116Z,67.74
2018-07-21T02:52:17.957Z,68.31
2018-07-21T02:53:20.803Z,68.38
2018-07-21T02:54:23.651Z,68.96
2018-07-21T02:55:26.499Z,68.67
2018-07-21T02:56:29.692Z,69.74
2018-07-21T02:57:32.568Z,68.87
2018-07-21T02:58:35.442Z,69.25
2018-07-21T02:59:38.298Z,68.75
2018-07-21T03:00:41.120Z,68.23
2018-07-21T03:01:43.930Z,68.70
2018-07-21T03:02:49.026Z,68.20
2018-07-21T03:03:52.558Z,68.60
2018-07-21T03:04:56.690Z,68.39
2018-07-21T03:06:01.443Z,68.62
2018-07-21T03:07:04.960Z,67.21
2018-07-21T03:08:07.982Z,67.41
2018-07-21T03:09:12.626Z,67.05
2018-07-21T03:10:15.651Z,64.99
2018-07-21T03:11:19.554Z,65.05
2018-07-21T03:12:22.440Z,64.43
2018-07-21T03:13:28.713Z,62.40
2018-07-21T03:14:31.511Z,62.27
2018-07-21T03:15:35.512Z,62.16
2018-07-21T03:16:38.594Z,60.98
2018-07-21T03:17:41.470Z,60.75
2018-07-21T03:18:44.438Z,60.19
2018-07-21T03:19:47.542Z,59.45
2018-07-21T03:20:50.473Z,59.54
2018-07-21T03:21:53.674Z,58.86
2018-07-21T03:22:57.179Z,57.89
2018-07-21T03:24:00.222Z,57.70
2018-07-21T03:25:03.941Z,57.32
2018-07-21T03:26:06.990Z,57.99
2018-07-21T03:27:09.825Z,57.45
2018-07-21T03:28:13.192Z,58.23
2018-07-21T03:29:18.074Z,58.42
2018-07-21T03:30:20.987Z,57.69
2018-07-21T03:31:23.887Z,58.15
2018-07-21T03:32:26.700Z,58.21
2018-07-21T03:33:29.613Z,58.24
2018-07-21T03:34:32.864Z,59.57
2018-07-21T03:35:35.781Z,59.13
2018-07-21T03:36:38.671Z,59.22
2018-07-21T03:37:41.648Z,58.48
2018-07-21T03:38:44.500Z,58.22
2018-07-21T03:39:47.337Z,59.48
2018-07-21T03:40:50.494Z,58.82
2018-07-21T03:41:53.349Z,58.41
2018-07-21T03:42:56.190Z,58.74
2018-07-21T03:43:59.129Z,58.21
2018-07-21T03:45:01.973Z,57.81
2018-07-21T03:46:04.924Z,57.62
2018-07-21T03:47:08.279Z,57.34
2018-07-21T03:48:11.121Z,57.59
2018-07-21T03:49:14.841Z,57.19
2018-07-21T03:50:17.751Z,57.46
2018-07-21T03:51:20.602Z,57.61
2018-07-21T03:52:23.431Z,58.35
2018-07-21T03:53:26.532Z,58.49
2018-07-21T03:54:29.474Z,58.79
2018-07-21T03:55:32.575Z,60.79
2018-07-21T03:56:35.411Z,60.89
2018-07-21T03:57:39.215Z,61.15
2018-07-21T03:58:43.021Z,62.02
2018-07-21T03:59:46.392Z,62.39
2018-07-21T04:00:49.311Z,62.24
2018-07-21T04:01:52.202Z,62.19
2018-07-21T04:02:55.252Z,62.07
2018-07-21T04:04:03.059Z,61.90
2018-07-21T04:05:07.157Z,62.32
2018-07-21T04:06:10.654Z,62.51
2018-07-21T04:07:14.550Z,62.93
2018-07-21T04:08:18.358Z,62.63
2018-07-21T04:09:21.389Z,63.14
2018-07-21T04:10:24.296Z,63.06
2018-07-21T04:11:27.179Z,63.53
2018-07-21T04:12:30.297Z,63.55
2018-07-21T04:13:33.813Z,63.68
2018-07-21T04:14:36.685Z,63.55
2018-07-21T04:15:41.975Z,64.50
2018-07-21T04:16:45.374Z,64.37
2018-07-21T04:17:49.667Z,65.93
2018-07-21T04:18:52.792Z,66.28
2018-07-21T04:19:56.611Z,66.98
2018-07-21T04:21:00.314Z,66.74
2018-07-21T04:22:03.601Z,66.23
2018-07-21T04:24:16.447Z,64.35
2018-07-21T04:25:20.526Z,64.91
2018-07-21T04:26:23.346Z,64.60
2018-07-21T04:27:26.210Z,64.05
2018-07-21T04:28:29.398Z,64.01
2018-07-21T04:29:36.820Z,64.22
2018-07-21T04:30:40.580Z,64.82
2018-07-21T04:31:44.741Z,64.64
2018-07-21T04:32:56.378Z,65.21
2018-07-21T04:34:02.678Z,65.55
2018-07-21T04:35:10.401Z,65.11
2018-07-21T04:36:16.011Z,66.13
2018-07-21T04:37:21.703Z,66.99
2018-07-21T04:38:26.210Z,69.92
2018-07-21T04:40:42.615Z,72.47
2018-07-21T04:43:04.769Z,73.60
2018-07-21T04:44:08.427Z,73.75
2018-07-21T04:45:11.884Z,74.89
2018-07-21T04:46:14.980Z,75.87
2018-07-21T04:47:19.216Z,76.47
2018-07-21T04:48:22.215Z,76.66
2018-07-21T04:49:26.424Z,76.31
2018-07-21T04:50:35.466Z,75.91
2018-07-21T04:51:39.775Z,74.82
2018-07-21T04:56:24.164Z,74.90
2018-07-21T04:58:42.554Z,73.19
2018-07-21T04:59:45.716Z,73.85
2018-07-21T05:00:50.034Z,73.47
2018-07-21T05:01:54.557Z,72.87
2018-07-21T05:02:59.797Z,71.95
2018-07-21T05:04:06.748Z,71.88
2018-07-21T05:08:51.057Z,69.65
2018-07-21T05:09:55.503Z,68.32
2018-07-21T05:10:59.309Z,69.69
2018-07-21T05:12:02.195Z,70.45
2018-07-21T05:14:08.659Z,71.10
2018-07-21T05:16:26.032Z,71.69
2018-07-21T05:17:30.950Z,71.08
2018-07-21T05:18:36.032Z,71.31
2018-07-21T05:19:38.941Z,71.37
2018-07-21T05:21:59.861Z,71.17
2018-07-21T05:23:07.545Z,70.43
2018-07-21T05:24:12.222Z,70.50
2018-07-21T05:25:15.905Z,70.48
2018-07-21T05:26:19.576Z,70.99
2018-07-21T05:27:24.120Z,70.67
2018-07-21T05:28:28.125Z,70.25
2018-07-21T05:29:31.445Z,70.68
2018-07-21T05:30:35.798Z,70.83
2018-07-21T05:31:40.523Z,69.98
2018-07-21T05:32:49.184Z,69.76
2018-07-21T05:33:52.727Z,69.21
2018-07-21T05:34:55.712Z,69.15
2018-07-21T05:35:59.247Z,69.44
2018-07-21T05:37:03.177Z,70.13
2018-07-21T05:38:07.152Z,70.46
2018-07-21T05:39:11.924Z,69.34
2018-07-21T05:40:16.003Z,69.92
2018-07-21T05:41:23.471Z,70.31
2018-07-21T05:42:26.947Z,70.18
2018-07-21T05:44:48.848Z,70.32
2018-07-21T05:45:51.865Z,70.21
2018-07-21T05:46:54.841Z,69.61
2018-07-21T05:48:01.693Z,68.87
2018-07-21T05:50:26.909Z,69.78
2018-07-21T05:51:31.578Z,70.21
2018-07-21T05:52:34.560Z,69.75
2018-07-21T05:53:37.734Z,69.79
2018-07-21T05:54:40.984Z,70.17
2018-07-21T05:55:44.129Z,71.38
2018-07-21T05:56:54.682Z,71.09
2018-07-21T06:38:36.912Z,75.07
2018-07-21T06:39:43.656Z,75.39
2018-07-21T06:40:46.689Z,75.30
2018-07-21T06:41:51.395Z,75.74
2018-07-21T06:42:54.500Z,74.02
2018-07-21T06:43:58.730Z,73.82
2018-07-21T06:48:04.028Z,74.76
2018-07-21T06:52:02.671Z,73.56
2018-07-21T06:53:10.119Z,73.18
2018-07-21T06:54:30.583Z,73.56
2018-07-21T06:55:36.744Z,73.58
2018-07-21T06:56:40.112Z,73.59
2018-07-21T06:57:45.757Z,73.09
2018-07-21T06:58:49.084Z,73.84
2018-07-21T07:01:06.729Z,73.79
2018-07-21T07:02:11.392Z,74.31
2018-07-21T07:03:14.286Z,73.20
2018-07-21T07:04:18.954Z,74.74
2018-07-21T07:05:21.876Z,75.59
2018-07-21T07:06:26.274Z,75.55
2018-07-21T07:07:30.415Z,75.05
2018-07-21T07:08:37.012Z,75.15
2018-07-21T07:09:41.319Z,75.36
2018-07-21T07:10:46.987Z,75.52
2018-07-21T07:11:50.289Z,75.74
2018-07-21T07:12:53.215Z,76.46
2018-07-21T07:15:10.235Z,76.47
2018-07-21T07:16:13.107Z,76.05
2018-07-21T07:17:16.295Z,76.61
2018-07-21T07:18:19.164Z,75.54
2018-07-21T07:19:22.173Z,75.75
2018-07-21T07:20:25.835Z,74.59
2018-07-21T07:21:31.516Z,75.32
2018-07-21T07:22:34.792Z,74.33
2018-07-21T07:23:37.746Z,74.46
2018-07-21T07:24:41.559Z,75.42
2018-07-21T07:26:58.448Z,75.99
2018-07-21T07:28:01.376Z,74.72
2018-07-21T07:29:04.279Z,75.13
2018-07-21T07:30:07.215Z,74.36
2018-07-21T07:31:15.117Z,74.95
2018-07-21T07:32:19.641Z,76.97
2018-07-21T07:33:22.664Z,76.96
2018-07-21T07:34:27.318Z,76.53
2018-07-21T07:35:32.909Z,77.37
2018-07-21T07:36:37.055Z,77.08
2018-07-21T07:37:51.646Z,77.20
2018-07-21T07:38:56.432Z,76.88
2018-07-21T07:40:01.125Z,76.56
2018-07-21T07:41:05.008Z,77.53
2018-07-21T07:42:08.222Z,76.60
2018-07-21T07:43:12.051Z,77.21
2018-07-21T07:44:16.465Z,77.81
2018-07-21T07:45:19.460Z,78.30
2018-07-21T07:46:23.669Z,77.49
2018-07-21T07:48:36.929Z,76.03
2018-07-21T07:50:59.606Z,74.66
2018-07-21T07:52:02.522Z,74.53
2018-07-21T07:53:05.465Z,75.76
2018-07-21T07:54:09.426Z,75.27
2018-07-21T07:55:14.766Z,74.91
2018-07-21T07:56:18.346Z,74.84
2018-07-21T07:58:44.467Z,73.02
2018-07-21T07:59:54.259Z,73.69
2018-07-21T08:00:57.154Z,74.72
2018-07-21T08:02:00.625Z,75.91
2018-07-21T08:03:04.329Z,76.79
2018-07-21T08:04:07.303Z,76.83
2018-07-21T08:05:10.366Z,75.60
2018-07-21T08:06:13.262Z,75.66
2018-07-21T08:07:16.139Z,74.50
2018-07-21T08:08:19.146Z,74.03
2018-07-21T08:09:22.433Z,74.75
2018-07-21T08:10:25.383Z,75.45
2018-07-21T08:11:28.296Z,75.61
2018-07-21T08:12:32.310Z,74.99
2018-07-21T08:13:35.302Z,74.51
2018-07-21T08:14:38.798Z,73.73
2018-07-21T08:15:49.418Z,73.33
2018-07-21T08:16:59.818Z,73.62
2018-07-21T08:18:03.748Z,74.21
2018-07-21T08:19:07.328Z,73.76
2018-07-21T08:20:10.255Z,74.18
2018-07-21T08:21:13.193Z,75.95
2018-07-21T08:22:16.614Z,75.89
2018-07-21T08:23:19.497Z,76.81
2018-07-21T08:24:22.447Z,77.02
2018-07-21T08:25:26.159Z,76.15
2018-07-21T08:26:34.408Z,76.48
2018-07-21T08:27:43.225Z,76.70
2018-07-21T08:28:49.822Z,77.10
2018-07-21T08:29:52.815Z,75.85
2018-07-21T08:30:58.094Z,75.00
2018-07-21T08:32:01.637Z,74.73
2018-07-21T08:33:04.752Z,73.28
2018-07-21T08:34:08.209Z,73.26
2018-07-21T08:35:11.149Z,74.34
2018-07-21T08:36:14.115Z,74.63
2018-07-21T08:37:17.063Z,74.67
2018-07-21T08:38:19.979Z,73.86
2018-07-21T08:39:23.459Z,73.96
2018-07-21T08:40:26.337Z,74.97
2018-07-21T08:41:29.274Z,75.54
2018-07-21T08:42:32.219Z,75.94
2018-07-21T08:43:36.151Z,75.72
2018-07-21T08:44:39.084Z,74.18
2018-07-21T08:45:46.901Z,74.32
2018-07-21T08:46:49.888Z,74.51
2018-07-21T08:47:53.648Z,73.27
2018-07-21T08:48:56.572Z,73.56
2018-07-21T08:50:00.386Z,73.09
2018-07-21T08:51:03.285Z,73.19
2018-07-21T08:52:06.551Z,73.77
2018-07-21T08:53:11.163Z,73.05
2018-07-21T08:54:14.330Z,73.71
2018-07-21T08:55:17.865Z,73.07
2018-07-21T08:56:20.826Z,72.81
2018-07-21T08:57:24.311Z,72.18
2018-07-21T08:58:29.396Z,72.95
2018-07-21T08:59:32.335Z,72.75
2018-07-21T09:00:35.202Z,71.77
2018-07-21T09:01:38.114Z,71.85
2018-07-21T09:02:41.136Z,72.29
2018-07-21T09:03:45.234Z,73.05
2018-07-21T09:04:48.729Z,73.91
2018-07-21T09:05:51.840Z,74.14
2018-07-21T09:06:54.955Z,72.90
2018-07-21T09:07:57.867Z,73.62
2018-07-21T09:09:02.087Z,71.85
2018-07-21T09:10:36.319Z,71.85
2018-07-21T09:11:39.296Z,71.28
2018-07-21T09:12:42.300Z,71.19
2018-07-21T09:13:45.798Z,71.21
2018-07-21T09:14:48.881Z,70.90
2018-07-21T09:15:51.816Z,71.50
2018-07-21T09:16:55.139Z,72.57
2018-07-21T09:17:58.116Z,73.13
2018-07-21T09:19:05.250Z,73.99
2018-07-21T09:20:08.908Z,74.16
2018-07-21T09:21:13.020Z,73.67
2018-07-21T09:22:16.529Z,73.13
2018-07-21T09:23:21.257Z,72.39
2018-07-21T09:24:25.164Z,72.51
2018-07-21T09:25:29.990Z,72.13
2018-07-21T09:26:33.570Z,72.61
2018-07-21T09:27:36.777Z,72.55
2018-07-21T09:28:40.440Z,71.97
2018-07-21T09:29:45.254Z,71.91
2018-07-21T09:30:48.753Z,72.89
2018-07-21T09:31:52.266Z,73.46
2018-07-21T09:32:57.258Z,73.18
2018-07-21T09:34:01.823Z,73.51
2018-07-21T09:35:06.422Z,72.03
2018-07-21T09:36:11.445Z,70.90
2018-07-21T09:37:15.136Z,70.58
2018-07-21T09:38:19.067Z,70.40
2018-07-21T09:39:21.962Z,68.74
2018-07-21T09:40:24.850Z,68.28
2018-07-21T09:41:27.753Z,68.72
2018-07-21T09:42:31.023Z,69.34
2018-07-21T09:43:33.942Z,70.25
2018-07-21T09:44:37.278Z,69.79
2018-07-21T09:45:41.299Z,71.16
2018-07-21T09:46:45.190Z,69.45
2018-07-21T09:47:49.655Z,69.93
2018-07-21T09:48:58.586Z,69.95
2018-07-21T09:50:03.445Z,70.76
2018-07-21T09:51:07.126Z,71.24
2018-07-21T09:52:16.627Z,70.35
2018-07-21T09:53:19.603Z,69.37
2018-07-21T09:54:22.595Z,70.17
2018-07-21T09:55:26.427Z,69.70
2018-07-21T09:56:30.384Z,68.84
2018-07-21T09:57:33.359Z,67.68
2018-07-21T09:58:41.125Z,66.02
2018-07-21T09:59:46.506Z,65.87
2018-07-21T10:00:56.397Z,65.99
2018-07-21T10:01:59.285Z,66.29
2018-07-21T10:03:05.619Z,67.05
2018-07-21T10:04:08.661Z,66.60
2018-07-21T10:05:12.192Z,67.86
2018-07-21T10:06:15.171Z,68.82
2018-07-21T10:07:20.153Z,69.90
2018-07-21T10:08:24.442Z,69.74
2018-07-21T10:09:27.387Z,68.99
2018-07-21T10:10:30.401Z,68.18
2018-07-21T10:11:34.729Z,66.41
2018-07-21T10:12:37.586Z,65.56
2018-07-21T10:13:40.769Z,64.83
2018-07-21T10:14:43.647Z,65.63
2018-07-21T10:15:46.612Z,64.84
2018-07-21T10:16:49.497Z,65.37
2018-07-21T10:17:53.072Z,64.58
2018-07-21T10:18:56.500Z,65.01
2018-07-21T10:19:59.708Z,65.31
2018-07-21T10:21:02.971Z,64.79
2018-07-21T10:22:06.733Z,65.47
2018-07-21T10:23:09.603Z,65.20
2018-07-21T10:24:17.395Z,64.80
2018-07-21T10:25:26.282Z,66.41
2018-07-21T10:26:33.939Z,67.68
2018-07-21T10:27:42.848Z,68.45
2018-07-21T10:28:52.657Z,68.72
2018-07-21T10:29:55.560Z,67.67
2018-07-21T10:30:58.433Z,66.20
2018-07-21T10:32:01.349Z,65.76
2018-07-21T10:33:07.432Z,66.48
2018-07-21T10:34:11.033Z,66.01
2018-07-21T10:35:13.940Z,64.66
2018-07-21T10:36:17.485Z,65.30
2018-07-21T10:37:23.658Z,65.42
2018-07-21T10:38:26.633Z,64.59
2018-07-21T10:39:29.618Z,65.39
2018-07-21T10:40:33.200Z,64.60
2018-07-21T10:41:37.413Z,63.93
2018-07-21T10:42:40.431Z,63.34
2018-07-21T10:43:43.338Z,63.65
2018-07-21T10:44:46.317Z,64.26
2018-07-21T10:45:50.951Z,63.70
2018-07-21T10:46:56.541Z,63.12
2018-07-21T10:48:00.044Z,63.94
2018-07-21T10:49:06.027Z,63.13
2018-07-21T10:50:10.387Z,64.12
2018-07-21T10:51:13.314Z,64.33
2018-07-21T10:52:17.459Z,62.17
2018-07-21T10:53:28.299Z,62.83
2018-07-21T10:54:42.852Z,61.34
2018-07-21T11:09:52.574Z,63.06
2018-07-21T11:14:41.276Z,63.20
2018-07-21T11:15:45.834Z,62.16
2018-07-21T11:16:50.643Z,62.03
2018-07-21T11:17:53.492Z,61.22
2018-07-21T11:18:56.945Z,61.93
2018-07-21T11:20:00.856Z,61.52
2018-07-21T11:21:03.790Z,60.98
2018-07-21T11:22:06.700Z,62.50
2018-07-21T11:23:09.984Z,61.70
2018-07-21T11:24:17.475Z,59.88
2018-07-21T11:25:21.324Z,59.51
2018-07-21T11:27:34.554Z,61.12
2018-07-21T11:28:38.707Z,60.29
2018-07-21T11:29:48.044Z,59.67
2018-07-21T11:30:54.564Z,59.47
2018-07-21T11:31:59.105Z,60.65
2018-07-21T11:33:03.480Z,60.99
2018-07-21T11:34:07.364Z,62.37
2018-07-21T11:36:37.032Z,62.57
2018-07-21T11:37:42.307Z,62.49
2018-07-21T11:38:46.520Z,62.89
2018-07-21T11:39:49.319Z,62.98
2018-07-21T11:40:52.226Z,63.59
2018-07-21T11:41:56.167Z,63.50
2018-07-21T11:42:59.234Z,64.29
2018-07-21T11:44:02.772Z,63.46
2018-07-21T11:45:05.962Z,63.73
2018-07-21T11:46:09.230Z,65.41
2018-07-21T11:47:12.059Z,65.11
2018-07-21T11:48:15.318Z,64.22
2018-07-21T11:49:18.332Z,65.15
2018-07-21T11:50:21.229Z,65.03
2018-07-21T11:51:24.115Z,65.48
2018-07-21T11:52:26.983Z,64.96
2018-07-21T11:53:29.881Z,64.71
2018-07-21T11:54:33.523Z,65.23
2018-07-21T11:55:36.454Z,64.95
2018-07-21T11:56:39.304Z,65.32
2018-07-21T11:57:42.417Z,65.40
2018-07-21T11:58:45.438Z,65.26
2018-07-21T11:59:49.510Z,65.33
2018-07-21T12:00:52.699Z,66.23
2018-07-21T12:01:55.665Z,65.66
2018-07-21T12:02:58.578Z,65.21
2018-07-21T12:04:02.447Z,65.85
2018-07-21T12:05:05.346Z,66.54
2018-07-21T12:06:11.280Z,66.65
2018-07-21T12:07:16.328Z,66.36
2018-07-21T12:08:22.339Z,67.08
2018-07-21T12:09:25.480Z,66.76
2018-07-21T12:10:29.489Z,66.33
2018-07-21T12:11:32.391Z,66.00
2018-07-21T12:12:35.380Z,67.07
2018-07-21T12:13:38.558Z,66.71
2018-07-21T12:14:42.252Z,66.22
2018-07-21T12:15:46.122Z,65.86
2018-07-21T12:16:49.751Z,66.93
2018-07-21T12:17:52.615Z,66.47
2018-07-21T12:18:56.092Z,66.33
2018-07-21T12:20:00.408Z,66.22
2018-07-21T12:21:16.924Z,66.67
2018-07-21T12:22:20.067Z,65.76
2018-07-21T12:23:22.922Z,65.91
2018-07-21T12:24:25.899Z,65.66
2018-07-21T12:25:33.112Z,65.33
2018-07-21T12:26:39.138Z,65.81
2018-07-21T12:27:46.253Z,65.41
2018-07-21T12:28:49.838Z,66.36
2018-07-21T12:29:58.764Z,65.48
2018-07-21T12:31:02.980Z,65.61
2018-07-21T12:32:09.570Z,65.10
2018-07-21T12:33:13.704Z,65.79
2018-07-21T12:34:19.257Z,65.70
2018-07-21T12:35:23.714Z,64.61
2018-07-21T12:36:28.579Z,64.55
2018-07-21T12:37:32.396Z,64.41
2018-07-21T12:38:36.289Z,64.39
2018-07-21T12:39:39.693Z,64.64
2018-07-21T12:40:42.552Z,65.52
2018-07-21T12:41:45.950Z,64.99
2018-07-21T12:42:48.885Z,66.16
2018-07-21T12:43:51.739Z,66.32
2018-07-21T12:44:54.671Z,65.98
2018-07-21T12:46:00.617Z,66.46
2018-07-21T12:47:15.176Z,65.53
2018-07-21T12:48:19.238Z,65.50
2018-07-21T12:49:28.217Z,64.78
2018-07-21T12:50:32.417Z,65.42
2018-07-21T12:51:37.326Z,65.19
2018-07-21T12:52:45.062Z,65.86
2018-07-21T12:53:52.099Z,65.11
2018-07-21T12:54:56.381Z,64.66
2018-07-21T12:56:00.345Z,65.64
2018-07-21T12:57:05.282Z,65.32
2018-07-21T12:58:11.162Z,65.45
2018-07-21T12:59:16.834Z,65.46
2018-07-21T13:00:21.376Z,65.53
2018-07-21T13:01:26.074Z,64.96
2018-07-21T13:02:43.997Z,64.85
2018-07-21T13:03:53.362Z,65.55
2018-07-21T13:04:57.666Z,65.19
2018-07-21T13:06:04.539Z,64.86
2018-07-21T13:07:13.109Z,64.89
2018-07-21T13:08:18.878Z,65.22
2018-07-21T13:10:34.620Z,64.88
2018-07-21T13:11:43.693Z,65.24
2018-07-21T13:12:48.736Z,64.98
2018-07-21T13:15:06.241Z,64.71
2018-07-21T13:16:10.779Z,65.17
2018-07-21T13:17:15.703Z,65.32
2018-07-21T13:18:28.026Z,65.12
2018-07-21T13:19:35.581Z,63.95
2018-07-21T13:20:44.240Z,64.76
2018-07-21T13:21:47.804Z,64.59
2018-07-21T13:22:51.633Z,63.91
2018-07-21T13:23:56.484Z,64.00
2018-07-21T13:25:02.200Z,63.77
2018-07-21T13:26:05.665Z,63.72
2018-07-21T13:27:10.280Z,63.73
2018-07-21T13:28:13.193Z,62.39
2018-07-21T13:29:16.732Z,61.33
2018-07-21T13:30:26.635Z,61.71
2018-07-21T13:31:38.330Z,61.80
2018-07-21T13:32:41.564Z,61.30
2018-07-21T13:33:44.469Z,60.92
2018-07-21T13:34:47.478Z,61.42
2018-07-21T13:35:50.497Z,61.31
2018-07-21T13:36:53.793Z,61.29
2018-07-21T13:37:58.066Z,61.18
2018-07-21T13:39:01.960Z,61.16
2018-07-21T13:40:05.373Z,60.66
2018-07-21T13:41:11.117Z,59.35
2018-07-21T13:42:15.846Z,59.74
2018-07-21T13:43:24.495Z,59.12
2018-07-21T13:44:33.691Z,59.44
2018-07-21T13:45:41.527Z,57.99
2018-07-21T13:46:45.458Z,56.74
2018-07-21T13:47:50.067Z,54.40
2018-07-21T13:48:54.378Z,52.75
2018-07-21T13:50:02.747Z,53.02
2018-07-21T13:51:06.800Z,51.64
2018-07-21T13:52:12.366Z,53.25
2018-07-21T13:53:18.060Z,53.35
2018-07-21T13:54:20.975Z,53.66
2018-07-21T13:55:24.024Z,52.61
2018-07-21T13:56:27.762Z,52.77
2018-07-21T13:57:30.789Z,52.62
2018-07-21T13:58:34.361Z,51.70
2018-07-21T13:59:38.371Z,52.69
2018-07-21T14:00:43.574Z,51.93
2018-07-21T14:01:47.788Z,51.78
2018-07-21T14:02:52.841Z,51.34
2018-07-21T14:03:55.961Z,50.39
2018-07-21T14:06:08.231Z,49.56
2018-07-21T14:07:14.029Z,50.42
2018-07-21T14:08:18.988Z,52.12
2018-07-21T14:09:24.325Z,52.30
2018-07-21T14:10:28.410Z,51.83
2018-07-21T14:11:34.050Z,52.15
2018-07-21T14:12:38.236Z,51.96
2018-07-21T14:14:56.514Z,51.58
2018-07-21T14:18:29.796Z,51.84
2018-07-21T14:19:34.473Z,51.30
2018-07-21T14:20:38.088Z,51.10
2018-07-21T14:21:41.732Z,51.36
2018-07-21T14:22:45.185Z,51.29
2018-07-21T14:23:48.769Z,51.75
2018-07-21T14:24:53.315Z,51.13
2018-07-21T14:25:58.561Z,50.28
2018-07-21T14:27:05.068Z,51.18
2018-07-21T14:28:09.619Z,50.25
2018-07-21T14:29:17.337Z,49.08
2018-07-21T14:30:21.673Z,49.53
2018-07-21T14:31:25.093Z,46.07
2018-07-21T14:33:38.841Z,48.46
2018-07-21T14:34:46.349Z,48.18
2018-07-21T14:35:55.956Z,48.79
2018-07-21T14:37:04.314Z,49.74
2018-07-21T14:38:19.190Z,50.33
2018-07-21T14:39:30.099Z,50.81
2018-07-21T14:40:42.107Z,49.46
2018-07-21T14:41:47.715Z,48.48
2018-07-21T14:42:51.385Z,49.04
2018-07-21T14:47:40.315Z,51.20
2018-07-21T14:51:38.289Z,52.77
2018-07-21T14:54:50.737Z,50.67
2018-07-21T14:59:09.241Z,49.48
2018-07-21T15:02:44.749Z,45.48
2018-07-21T15:03:52.163Z,45.89
2018-07-21T15:06:17.773Z,45.30
2018-07-21T15:07:22.551Z,45.36
2018-07-21T15:09:01.705Z,47.41
2018-07-21T15:11:19.254Z,50.12
2018-07-21T15:12:27.512Z,50.86
2018-07-21T15:13:35.640Z,50.49
2018-07-21T15:17:05.965Z,49.22
2018-07-21T15:19:30.815Z,49.56
2018-07-21T15:20:33.713Z,48.59
2018-07-21T15:21:37.229Z,47.74
2018-07-21T15:22:40.639Z,48.72
2018-07-21T15:23:46.361Z,48.10
2018-07-21T15:24:49.683Z,46.93
2018-07-21T15:25:52.739Z,47.18
2018-07-21T15:26:55.589Z,46.22
2018-07-21T15:27:59.382Z,46.28
2018-07-21T15:29:04.265Z,44.96
2018-07-21T15:30:08.574Z,45.43
2018-07-21T15:31:17.466Z,47.18
2018-07-21T15:32:20.371Z,47.45
2018-07-21T15:33:23.932Z,48.16
2018-07-21T15:34:27.852Z,49.58
2018-07-21T15:35:32.574Z,49.29
2018-07-21T15:36:38.613Z,49.73
2018-07-21T15:37:41.795Z,50.10
2018-07-21T15:38:44.667Z,49.61
2018-07-21T15:39:47.773Z,49.10
2018-07-21T15:40:57.356Z,49.52
2018-07-21T15:42:00.348Z,50.50
2018-07-21T15:43:04.964Z,49.51
2018-07-21T15:44:08.506Z,50.20
2018-07-21T15:45:12.359Z,49.16
2018-07-21T15:46:16.876Z,48.76
2018-07-21T15:47:20.932Z,48.02
2018-07-21T15:48:23.848Z,47.01
2018-07-21T15:49:26.830Z,48.44
2018-07-21T16:02:21.707Z,49.91